Time;durP1;ratioP1;P1;durP2;ratioP2;P2;SDS_P1;SDS_P2;PMS_P1;PMS_P2;Temp;Humidity;BMP_temperature;BMP_pressure;BME280_temperature;BME280_humidity;BME280_pressure;Samples;Min_cycle;Max_cycle;Signal;HPM_P1;HPM_P2
2023/05/23 00:00:36;;;;;;;10.43;7.95;;;;;;;21.71;51.32;101819.44;5019220;28;20037;-68
2023/05/23 00:03:03;;;;;;;13.10;7.93;;;;;;;21.67;51.53;101816.22;5021534;28;20083;-69
2023/05/23 00:05:28;;;;;;;11.20;8.80;;;;;;;21.68;51.39;101815.25;5004307;28;20060;-69
2023/05/23 00:07:53;;;;;;;12.43;8.25;;;;;;;21.65;51.33;101815.50;5009399;28;20518;-69
2023/05/23 00:10:19;;;;;;;11.57;8.32;;;;;;;21.68;51.61;101822.34;5004006;28;20029;-69
2023/05/23 00:12:46;;;;;;;13.30;9.07;;;;;;;21.66;51.54;101825.13;5004099;28;20025;-69
2023/05/23 00:15:12;;;;;;;13.40;8.02;;;;;;;21.65;51.58;101823.44;5017250;28;20045;-68
2023/05/23 00:17:38;;;;;;;10.88;7.90;;;;;;;21.66;51.35;101824.28;5003672;28;20045;-69
2023/05/23 00:20:10;;;;;;;12.07;8.45;;;;;;;21.64;51.42;101819.09;5004106;28;20033;-68
2023/05/23 00:22:41;;;;;;;11.45;8.10;;;;;;;21.64;51.34;101829.72;5007249;28;20041;-68
2023/05/23 00:25:08;;;;;;;10.73;7.95;;;;;;;21.60;51.61;101822.97;5010554;28;20087;-68
2023/05/23 00:27:33;;;;;;;10.98;8.57;;;;;;;21.62;51.40;101825.50;5011570;28;20038;-68
2023/05/23 00:29:58;;;;;;;11.03;7.77;;;;;;;21.62;51.71;101830.78;5010433;28;20458;-68
2023/05/23 00:32:24;;;;;;;8.60;7.63;;;;;;;21.60;51.61;101825.59;5021283;28;20358;-68
2023/05/23 00:34:49;;;;;;;9.15;7.53;;;;;;;21.61;51.70;101837.09;5006119;28;20267;-69
2023/05/23 00:37:15;;;;;;;10.50;7.70;;;;;;;21.61;51.40;101837.91;5005526;28;20030;-69
2023/05/23 00:39:40;;;;;;;9.88;7.05;;;;;;;21.55;51.51;101831.31;5016791;28;20646;-69
2023/05/23 00:42:06;;;;;;;11.23;7.77;;;;;;;21.60;51.47;101838.03;5014599;28;20220;-68
2023/05/23 00:44:31;;;;;;;11.77;7.75;;;;;;;21.58;51.50;101830.22;5017120;28;20259;-68
2023/05/23 00:46:58;;;;;;;8.40;6.47;;;;;;;21.57;51.43;101831.19;5022808;28;20071;-69
2023/05/23 00:49:23;;;;;;;9.38;7.28;;;;;;;21.56;51.55;101835.63;5023217;28;20354;-69
2023/05/23 00:51:50;;;;;;;8.10;6.68;;;;;;;21.55;51.03;101835.75;5022864;28;20033;-68
2023/05/23 00:54:26;;;;;;;8.98;6.43;;;;;;;21.50;51.30;101830.81;5014803;28;20045;-68
2023/05/23 00:56:52;;;;;;;9.95;6.45;;;;;;;21.54;51.51;101834.09;5002986;28;20030;-68
2023/05/23 00:59:20;;;;;;;8.30;6.55;;;;;;;21.54;51.28;101839.41;5008145;28;20552;-68
2023/05/23 01:01:47;;;;;;;8.82;6.40;;;;;;;21.54;51.15;101837.56;5007548;28;20044;-67
2023/05/23 01:04:13;;;;;;;8.43;6.35;;;;;;;21.53;51.56;101840.34;5009482;28;20029;-68
2023/05/23 01:06:38;;;;;;;8.82;6.50;;;;;;;21.55;51.37;101849.00;5021359;28;20481;-67
2023/05/23 01:09:05;;;;;;;9.52;6.03;;;;;;;21.54;51.24;101844.69;5021684;28;20036;-67
2023/05/23 01:11:52;;;;;;;9.43;7.25;;;;;;;21.51;51.19;101844.94;5010445;28;20635;-68
2023/05/23 01:14:27;;;;;;;8.40;6.60;;;;;;;21.51;51.33;101847.59;5022876;28;20041;-68
2023/05/23 01:17:02;;;;;;;8.32;6.45;;;;;;;21.52;51.23;101854.56;5006675;28;20548;-69
2023/05/23 01:19:39;;;;;;;8.32;6.38;;;;;;;21.54;51.22;101852.66;5002625;28;20037;-67
2023/05/23 01:22:15;;;;;;;9.45;6.90;;;;;;;21.54;51.02;101860.63;5012525;28;20504;-68
2023/05/23 01:24:53;;;;;;;8.57;6.22;;;;;;;21.51;50.94;101855.56;5020936;28;20044;-67
2023/05/23 01:27:37;;;;;;;9.55;6.60;;;;;;;21.51;50.97;101852.91;5011288;28;20531;-68
2023/05/23 01:30:06;;;;;;;7.82;6.28;;;;;;;21.51;50.80;101855.56;5003084;28;20386;-67
2023/05/23 01:32:31;;;;;;;8.75;6.32;;;;;;;21.50;50.90;101862.66;5012482;28;20045;-68
2023/05/23 01:34:59;;;;;;;9.80;6.53;;;;;;;21.51;50.86;101863.50;5016299;28;20026;-68
2023/05/23 01:37:24;;;;;;;10.50;6.65;;;;;;;21.52;50.68;101865.19;5002341;28;20030;-68
2023/05/23 01:39:49;;;;;;;10.40;6.88;;;;;;;21.51;50.96;101877.59;5002435;28;20536;-68
2023/05/23 01:42:15;;;;;;;9.77;6.75;;;;;;;21.48;50.86;101871.69;5020235;28;20030;-69
2023/05/23 01:44:40;;;;;;;9.18;6.03;;;;;;;21.48;50.72;101863.72;5009729;28;20032;-69
2023/05/23 01:47:08;;;;;;;8.85;6.07;;;;;;;21.51;50.45;101879.41;5009736;28;20044;-68
2023/05/23 01:49:35;;;;;;;8.63;6.63;;;;;;;21.49;51.10;101865.41;5001950;28;20041;-68
2023/05/23 01:52:01;;;;;;;8.18;6.18;;;;;;;21.47;50.47;101873.47;5020316;28;20033;-68
2023/05/23 01:54:28;;;;;;;10.07;6.40;;;;;;;21.46;50.87;101871.78;5016732;28;20060;-68
2023/05/23 01:56:56;;;;;;;9.20;6.78;;;;;;;21.45;50.38;101879.88;5019429;28;20026;-67
2023/05/23 01:59:21;;;;;;;9.60;6.95;;;;;;;21.46;50.60;101873.59;5022127;28;20029;-68
2023/05/23 02:01:47;;;;;;;9.07;6.43;;;;;;;21.41;50.63;101865.16;5021522;28;20064;-69
2023/05/23 02:04:12;;;;;;;9.27;7.18;;;;;;;21.46;50.62;101881.53;5021604;28;20041;-67
2023/05/23 02:06:37;;;;;;;9.77;6.78;;;;;;;21.45;50.87;101879.88;5021167;28;20033;-68
2023/05/23 02:09:03;;;;;;;8.82;6.18;;;;;;;21.47;50.45;101888.53;5012897;28;20044;-67
2023/05/23 02:11:28;;;;;;;9.88;6.38;;;;;;;21.44;50.43;101889.63;5010983;28;20626;-68
2023/05/23 02:13:53;;;;;;;9.65;6.70;;;;;;;21.44;50.70;101886.97;5002683;28;20034;-67
2023/05/23 02:16:18;;;;;;;8.33;6.60;;;;;;;21.46;50.61;101890.34;5012530;28;20376;-68
2023/05/23 02:18:45;;;;;;;12.00;6.90;;;;;;;21.44;50.49;101889.63;5011200;28;20298;-69
2023/05/23 02:21:10;;;;;;;12.77;7.00;;;;;;;21.39;50.67;101886.50;5005543;28;20469;-68
2023/05/23 02:23:35;;;;;;;9.50;6.57;;;;;;;21.45;50.57;101901.09;5020744;28;20040;-69
2023/05/23 02:26:00;;;;;;;9.77;6.03;;;;;;;21.42;50.79;101894.22;5021510;28;20310;-68
2023/05/23 02:28:26;;;;;;;10.00;6.70;;;;;;;21.42;50.42;101909.28;5020158;28;20254;-68
2023/05/23 02:30:51;;;;;;;9.10;6.65;;;;;;;21.41;50.63;101905.75;5021058;28;20036;-68
2023/05/23 02:33:16;;;;;;;9.07;6.43;;;;;;;21.42;50.52;101912.75;5003652;28;20029;-68
2023/05/23 02:35:42;;;;;;;9.95;6.70;;;;;;;21.42;50.68;101910.13;5006907;28;20069;-67
2023/05/23 02:38:07;;;;;;;10.63;6.53;;;;;;;21.41;50.86;101907.59;5001527;28;21007;-68
2023/05/23 02:40:32;;;;;;;9.38;6.43;;;;;;;21.40;50.67;101898.78;5001460;28;20036;-67
2023/05/23 02:42:58;;;;;;;9.27;6.72;;;;;;;21.41;50.46;101899.63;5008441;28;20026;-69
2023/05/23 02:45:23;;;;;;;8.70;6.57;;;;;;;21.42;50.67;101903.97;5021068;28;20036;-68
2023/05/23 02:47:49;;;;;;;11.07;6.95;;;;;;;21.38;50.75;101904.22;5012866;28;20282;-69
2023/05/23 02:50:14;;;;;;;11.38;7.10;;;;;;;21.38;50.71;101900.72;5018347;28;20029;-68
2023/05/23 02:52:41;;;;;;;10.60;6.82;;;;;;;21.39;50.63;101899.75;5004668;28;20172;-68
2023/05/23 02:55:07;;;;;;;9.77;6.32;;;;;;;21.38;50.52;101898.91;5015362;28;20072;-68
2023/05/23 02:57:32;;;;;;;8.95;6.22;;;;;;;21.40;50.63;101906.75;5008913;28;20029;-68
2023/05/23 02:59:57;;;;;;;10.63;6.23;;;;;;;21.40;50.74;101905.91;5005686;28;20044;-67
2023/05/23 03:02:22;;;;;;;12.32;6.78;;;;;;;21.37;50.33;101897.22;5021694;28;20769;-68
2023/05/23 03:04:48;;;;;;;9.67;5.70;;;;;;;21.38;50.46;101900.72;5022277;28;20029;-69
2023/05/23 03:07:14;;;;;;;8.90;6.15;;;;;;;21.33;50.18;101898.44;5005250;28;20767;-68
2023/05/23 03:09:39;;;;;;;9.18;6.03;;;;;;;21.36;50.11;101905.28;5005409;28;20037;-68
2023/05/23 03:12:05;;;;;;;8.70;6.22;;;;;;;21.36;50.13;101900.84;5005677;28;20038;-68
2023/05/23 03:14:30;;;;;;;7.45;5.45;;;;;;;21.35;50.15;101903.63;5003816;28;20075;-68
2023/05/23 03:16:56;;;;;;;7.22;5.20;;;;;;;21.34;50.19;101900.09;5015624;28;20041;-68
2023/05/23 03:19:21;;;;;;;8.40;5.80;;;;;;;21.37;50.62;101910.47;5010923;28;20037;-67
2023/05/23 03:21:49;;;;;;;9.27;6.00;;;;;;;21.38;50.12;101909.53;5018017;28;20037;-68
2023/05/23 03:24:14;;;;;;;8.18;6.00;;;;;;;21.36;50.19;101910.59;5004859;28;20266;-68
2023/05/23 03:26:39;;;;;;;8.65;6.57;;;;;;;21.35;50.25;101907.09;5021952;28;20037;-68
2023/05/23 03:29:05;;;;;;;9.07;5.80;;;;;;;21.36;50.35;101911.47;5011179;28;20494;-69
2023/05/23 03:31:30;;;;;;;10.00;5.75;;;;;;;21.33;50.06;101908.19;5017406;28;20262;-68
2023/05/23 03:33:56;;;;;;;7.50;5.30;;;;;;;21.35;50.29;101915.06;5019072;28;20029;-69
2023/05/23 03:36:24;;;;;;;7.07;5.00;;;;;;;21.36;50.26;101914.09;5014245;28;20033;-68
2023/05/23 03:38:50;;;;;;;7.70;5.22;;;;;;;21.34;50.12;101910.72;5019827;28;20271;-67
2023/05/23 03:41:15;;;;;;;7.82;5.00;;;;;;;21.35;49.85;101916.88;5004745;28;20954;-68
2023/05/23 03:43:41;;;;;;;8.77;5.10;;;;;;;21.33;49.90;101916.13;5024116;28;20033;-67
2023/05/23 03:46:06;;;;;;;7.55;5.28;;;;;;;21.34;50.15;101907.22;5024302;28;20294;-67
2023/05/23 03:48:31;;;;;;;7.38;4.90;;;;;;;21.34;50.44;101910.72;5013869;28;20034;-68
2023/05/23 03:50:57;;;;;;;7.18;4.68;;;;;;;21.34;50.06;101912.53;5012325;28;20096;-68
2023/05/23 03:53:22;;;;;;;7.38;4.85;;;;;;;21.33;49.93;101919.66;5012141;28;20561;-67
2023/05/23 03:55:47;;;;;;;6.43;4.73;;;;;;;21.33;50.07;101926.75;5018259;28;20029;-69
2023/05/23 03:58:12;;;;;;;7.80;5.28;;;;;;;21.29;49.97;101918.19;5012855;28;20319;-69
2023/05/23 04:00:38;;;;;;;8.20;4.93;;;;;;;21.33;50.06;101918.78;5015773;28;20068;-69
2023/05/23 04:03:03;;;;;;;7.37;4.67;;;;;;;21.32;50.09;101931.22;5009972;28;20821;-68
2023/05/23 04:05:29;;;;;;;7.43;5.00;;;;;;;21.31;50.02;101931.31;5021441;28;20272;-68
2023/05/23 04:07:54;;;;;;;7.03;4.63;;;;;;;21.32;49.90;101935.69;5019429;28;20072;-68
2023/05/23 04:10:19;;;;;;;6.82;4.97;;;;;;;21.29;49.83;101933.25;5019409;28;20033;-69
2023/05/23 04:12:46;;;;;;;7.10;4.90;;;;;;;21.28;49.85;101937.69;5020355;28;20112;-69
2023/05/23 04:15:11;;;;;;;8.77;4.55;;;;;;;21.31;49.72;101937.47;5023250;28;20081;-69
2023/05/23 04:17:37;;;;;;;8.00;5.20;;;;;;;21.29;49.71;101941.22;5023439;28;20508;-67
2023/05/23 04:20:05;;;;;;;7.10;5.13;;;;;;;21.29;49.79;101944.69;5012606;28;20326;-68
2023/05/23 04:22:30;;;;;;;7.85;5.10;;;;;;;21.29;49.86;101939.41;5006754;28;20044;-67
2023/05/23 04:24:55;;;;;;;6.73;4.57;;;;;;;21.29;50.00;101941.22;5013960;28;20393;-68
2023/05/23 04:27:21;;;;;;;7.63;4.57;;;;;;;21.28;49.77;101936.88;5003744;28;20283;-68
2023/05/23 04:29:46;;;;;;;7.60;4.75;;;;;;;21.29;49.91;101955.31;5007454;28;20301;-69
2023/05/23 04:32:12;;;;;;;7.65;4.70;;;;;;;21.29;49.96;101952.66;5008040;28;20037;-67
2023/05/23 04:34:40;;;;;;;8.00;4.70;;;;;;;21.27;49.61;101938.69;5015685;28;20033;-68
2023/05/23 04:37:05;;;;;;;7.18;4.63;;;;;;;21.24;49.65;101946.00;5020109;28;20413;-68
2023/05/23 04:39:31;;;;;;;8.48;4.93;;;;;;;21.26;49.66;101957.34;5011833;28;20040;-67
2023/05/23 04:41:56;;;;;;;8.00;4.72;;;;;;;21.25;49.81;101953.84;5014259;28;20069;-68
2023/05/23 04:44:22;;;;;;;7.80;4.75;;;;;;;21.29;49.87;101960.63;5016674;28;20030;-69
2023/05/23 04:46:49;;;;;;;6.45;4.22;;;;;;;21.26;49.80;101960.00;5020247;28;20037;-69
2023/05/23 04:49:15;;;;;;;7.50;5.00;;;;;;;21.26;49.71;101967.97;5019028;28;20030;-67
2023/05/23 04:51:40;;;;;;;7.70;4.80;;;;;;;21.25;49.82;101967.09;5016053;28;20117;-67
2023/05/23 04:54:06;;;;;;;7.65;4.80;;;;;;;21.25;49.61;101958.31;5012477;28;20132;-68
2023/05/23 04:56:31;;;;;;;9.63;5.40;;;;;;;21.25;49.90;101963.63;5016323;28;20037;-68
2023/05/23 04:58:56;;;;;;;8.30;4.78;;;;;;;21.25;49.85;101968.91;5006977;28;20100;-68
2023/05/23 05:01:24;;;;;;;7.65;4.88;;;;;;;21.27;49.84;101973.16;5006593;28;20042;-68
2023/05/23 05:03:50;;;;;;;9.98;5.47;;;;;;;21.25;49.72;101975.06;5004691;28;20034;-68
2023/05/23 05:06:16;;;;;;;8.05;5.03;;;;;;;21.23;49.88;101977.00;5022540;28;20043;-68
2023/05/23 05:08:42;;;;;;;8.77;5.30;;;;;;;21.25;49.76;101984.81;5022706;28;20037;-68
2023/05/23 05:11:08;;;;;;;8.90;5.32;;;;;;;21.24;49.67;101985.78;5010688;28;20042;-68
2023/05/23 05:13:33;;;;;;;9.60;5.05;;;;;;;21.22;49.64;101975.31;5006360;28;20116;-68
2023/05/23 05:15:58;;;;;;;8.07;5.10;;;;;;;21.25;50.07;101992.78;5009571;28;20129;-67
2023/05/23 05:18:27;;;;;;;11.90;5.60;;;;;;;21.20;49.89;101986.03;5022216;28;20047;-67
2023/05/23 05:20:53;;;;;;;8.77;4.63;;;;;;;21.25;49.81;101992.78;5019291;28;20738;-68
2023/05/23 05:23:18;;;;;;;10.38;5.57;;;;;;;21.24;49.75;102001.69;5012303;28;20036;-67
2023/05/23 05:25:44;;;;;;;8.98;5.32;;;;;;;21.25;49.68;102001.56;5018478;28;20497;-67
2023/05/23 05:28:10;;;;;;;8.95;5.63;;;;;;;21.24;49.56;102007.84;5006340;28;20034;-68
2023/05/23 05:30:36;;;;;;;10.23;5.38;;;;;;;21.24;49.39;102004.34;5006012;28;20510;-67
2023/05/23 05:33:03;;;;;;;9.13;5.22;;;;;;;21.23;49.67;102007.97;5013615;28;20038;-68
2023/05/23 05:35:30;;;;;;;10.73;5.82;;;;;;;21.22;49.54;102011.56;5014977;28;20037;-69
2023/05/23 05:37:55;;;;;;;9.85;5.53;;;;;;;21.22;49.47;102008.91;5012745;28;20039;-69
2023/05/23 05:40:21;;;;;;;9.70;5.23;;;;;;;21.23;49.64;102011.44;5010458;28;20377;-69
2023/05/23 05:42:46;;;;;;;8.98;5.50;;;;;;;21.24;49.69;102020.25;5008701;28;20366;-69
2023/05/23 05:45:12;;;;;;;8.45;5.10;;;;;;;21.24;49.43;102025.53;5010804;28;20048;-68
2023/05/23 05:47:37;;;;;;;11.10;5.45;;;;;;;21.23;49.46;102024.72;5010963;28;20049;-68
2023/05/23 05:50:04;;;;;;;9.02;5.53;;;;;;;21.20;49.50;102024.94;5012373;28;20029;-68
2023/05/23 05:52:29;;;;;;;9.38;5.65;;;;;;;21.20;49.45;102020.50;5013620;28;20080;-68
2023/05/23 05:54:56;;;;;;;10.13;5.37;;;;;;;21.20;49.48;102025.81;5013661;28;20108;-68
2023/05/23 05:57:21;;;;;;;11.98;5.65;;;;;;;21.18;49.37;102022.41;5009480;28;20755;-68
2023/05/23 05:59:47;;;;;;;8.98;5.13;;;;;;;21.21;49.13;102034.59;5008879;28;20029;-68
2023/05/23 06:02:12;;;;;;;8.60;5.22;;;;;;;21.22;49.36;102038.06;5005167;28;20045;-68
2023/05/23 06:04:37;;;;;;;9.63;5.28;;;;;;;21.20;49.56;102039.06;5008503;28;20030;-69
2023/05/23 06:07:03;;;;;;;9.67;5.00;;;;;;;21.21;49.38;102042.53;5008489;28;20044;-67
2023/05/23 06:09:28;;;;;;;10.68;5.32;;;;;;;21.21;49.30;102045.19;5012064;28;20358;-69
2023/05/23 06:11:53;;;;;;;8.57;5.17;;;;;;;21.20;49.41;102052.31;5016459;28;20030;-70
2023/05/23 06:14:19;;;;;;;8.77;5.30;;;;;;;21.24;49.53;102049.41;5010898;28;20291;-68
2023/05/23 06:16:44;;;;;;;9.83;5.27;;;;;;;21.22;49.69;102041.59;5017496;28;20305;-68
2023/05/23 06:19:09;;;;;;;9.63;5.53;;;;;;;21.26;49.46;102052.81;5012120;28;20336;-67
2023/05/23 06:21:35;;;;;;;9.98;5.07;;;;;;;21.22;49.77;102060.16;5010035;28;20394;-69
2023/05/23 06:24:00;;;;;;;9.18;5.32;;;;;;;21.23;49.67;102061.81;5011696;28;20079;-68
2023/05/23 06:26:25;;;;;;;11.07;5.22;;;;;;;21.23;49.95;102063.63;5013596;28;20065;-69
2023/05/23 06:28:51;;;;;;;8.27;4.93;;;;;;;21.23;49.77;102069.78;5009755;28;20120;-69
2023/05/23 06:31:16;;;;;;;9.80;5.22;;;;;;;21.24;50.03;102065.31;5010922;28;20275;-68
2023/05/23 06:33:41;;;;;;;8.23;4.57;;;;;;;21.27;49.85;102065.06;5011259;28;20184;-70
2023/05/23 06:36:07;;;;;;;12.55;5.28;;;;;;;21.25;50.05;102072.31;5009984;28;20266;-69
2023/05/23 06:38:32;;;;;;;9.75;5.00;;;;;;;21.22;50.07;102070.75;5012901;28;20033;-69
2023/05/23 06:40:58;;;;;;;8.10;4.80;;;;;;;21.22;50.00;102068.09;5009661;28;20132;-68
2023/05/23 06:43:23;;;;;;;7.85;4.63;;;;;;;21.27;49.88;102075.69;5008427;28;20599;-69
2023/05/23 06:45:49;;;;;;;8.93;4.90;;;;;;;21.24;50.09;102075.91;5013266;28;20470;-69
2023/05/23 06:48:14;;;;;;;9.00;4.57;;;;;;;21.25;49.96;102083.75;5010946;28;20374;-67
2023/05/23 06:50:40;;;;;;;11.05;5.25;;;;;;;21.19;50.28;102090.38;5009528;28;20022;-68
2023/05/23 06:53:05;;;;;;;12.23;6.40;;;;;;;21.15;52.48;102090.72;5011298;28;20084;-67
2023/05/23 06:55:32;;;;;;;13.43;6.05;;;;;;;21.12;53.68;102091.78;5009643;28;20037;-68
2023/05/23 06:57:58;;;;;;;11.23;5.65;;;;;;;21.11;53.68;102095.41;5013248;28;20044;-68
2023/05/23 07:00:23;;;;;;;11.65;5.90;;;;;;;21.13;53.89;102104.09;5007552;28;20034;-68
2023/05/23 07:02:49;;;;;;;12.90;5.53;;;;;;;21.15;53.45;102119.88;5014872;28;20765;-68
2023/05/23 07:05:15;;;;;;;12.25;5.25;;;;;;;21.11;53.93;102111.31;5011192;28;20092;-68
2023/05/23 07:07:40;;;;;;;13.27;5.70;;;;;;;21.13;54.12;102114.69;5011319;28;20033;-70
2023/05/23 07:10:06;;;;;;;14.05;5.82;;;;;;;21.18;53.68;102107.22;5006306;28;20092;-70
2023/05/23 07:12:31;;;;;;;14.15;5.80;;;;;;;21.22;53.19;102105.22;5009227;28;20075;-70
2023/05/23 07:14:57;;;;;;;10.18;5.20;;;;;;;21.23;53.28;102117.50;5010486;28;20058;-70
2023/05/23 07:17:22;;;;;;;10.80;4.83;;;;;;;21.29;53.17;102119.69;5015032;28;20611;-67
2023/05/23 07:19:47;;;;;;;9.67;4.77;;;;;;;21.28;53.11;102119.81;5019338;28;20255;-68
2023/05/23 07:22:12;;;;;;;10.23;5.25;;;;;;;21.32;52.72;102122.13;5014053;28;20278;-69
2023/05/23 07:24:38;;;;;;;13.75;5.38;;;;;;;21.33;52.96;102122.94;5009776;28;20449;-64
2023/05/23 07:27:03;;;;;;;10.85;4.90;;;;;;;21.29;52.46;102125.00;5016169;28;20140;-67
2023/05/23 07:29:28;;;;;;;11.43;4.93;;;;;;;21.24;52.56;102118.34;5008784;28;20037;-67
2023/05/23 07:31:54;;;;;;;11.38;4.80;;;;;;;21.17;52.96;102115.28;5013933;28;20478;-66
2023/05/23 07:34:19;;;;;;;9.57;4.85;;;;;;;21.17;52.76;102129.41;5000368;28;20026;-68
2023/05/23 07:36:46;;;;;;;9.10;4.13;;;;;;;21.12;52.39;102118.28;5001325;28;20743;-68
2023/05/23 07:39:11;;;;;;;10.40;4.95;;;;;;;21.15;52.50;102130.47;5017063;28;20071;-68
2023/05/23 07:41:37;;;;;;;11.63;4.97;;;;;;;21.13;52.16;102130.59;5019921;28;21132;-68
2023/05/23 07:44:02;;;;;;;10.68;4.55;;;;;;;21.13;52.13;102130.59;5011498;28;20040;-68
2023/05/23 07:46:27;;;;;;;9.15;4.38;;;;;;;21.16;52.00;102126.88;5007215;28;20037;-71
2023/05/23 07:48:53;;;;;;;10.47;4.73;;;;;;;21.17;51.88;102128.56;5003480;28;20040;-69
2023/05/23 07:51:20;;;;;;;9.85;4.07;;;;;;;21.18;51.56;102133.75;5004951;28;20345;-69
2023/05/23 07:53:45;;;;;;;9.95;4.35;;;;;;;21.18;51.64;102133.75;5023229;28;20026;-67
2023/05/23 07:56:11;;;;;;;9.23;5.28;;;;;;;21.20;51.45;102147.75;5021969;28;20043;-67
2023/05/23 07:58:36;;;;;;;10.50;5.28;;;;;;;21.19;51.85;102145.22;5023082;28;20063;-68
2023/05/23 08:01:02;;;;;;;8.73;4.17;;;;;;;21.18;51.05;102144.34;5013110;28;20092;-67
2023/05/23 08:03:27;;;;;;;7.50;4.47;;;;;;;21.21;51.26;102153.88;5016407;28;20273;-67
2023/05/23 08:05:53;;;;;;;8.88;4.28;;;;;;;21.22;51.00;102152.06;5013382;28;20453;-67
2023/05/23 08:08:18;;;;;;;8.48;3.75;;;;;;;21.35;50.49;102155.53;5014925;28;20868;-69
2023/05/23 08:10:44;;;;;;;9.20;4.85;;;;;;;21.41;49.90;102155.03;5014873;28;20037;-68
2023/05/23 08:13:10;;;;;;;8.57;4.25;;;;;;;21.47;49.82;102164.34;5023710;28;20038;-67
2023/05/23 08:15:35;;;;;;;9.52;4.07;;;;;;;21.48;50.01;102160.75;5023847;28;20042;-67
2023/05/23 08:18:00;;;;;;;9.27;3.90;;;;;;;21.38;50.27;102150.84;5022814;28;20059;-68
2023/05/23 08:20:30;;;;;;;9.43;4.00;;;;;;;21.42;50.67;102162.03;5023217;28;20266;-69
2023/05/23 08:23:00;;;;;;;7.93;3.45;;;;;;;21.43;50.33;102155.78;5015615;28;20486;-68
2023/05/23 08:25:29;;;;;;;8.35;3.67;;;;;;;21.50;49.93;102158.84;5013720;28;20163;-70
2023/05/23 08:27:57;;;;;;;10.82;3.88;;;;;;;21.49;49.98;102168.63;5016298;28;20474;-66
2023/05/23 08:30:22;;;;;;;14.05;3.75;;;;;;;21.52;49.72;102160.44;5011177;28;20040;-68
2023/05/23 08:32:47;;;;;;;9.13;4.07;;;;;;;21.54;49.27;102171.78;5006806;28;20433;-69
2023/05/23 08:35:13;;;;;;;11.25;3.92;;;;;;;21.54;49.41;102162.97;5007584;28;20038;-68
2023/05/23 08:37:38;;;;;;;9.38;3.88;;;;;;;21.53;49.21;102172.72;5017607;28;20064;-71
2023/05/23 08:40:07;;;;;;;8.60;3.78;;;;;;;21.51;49.38;102166.69;5014873;28;20037;-75
2023/05/23 08:42:32;;;;;;;11.05;4.05;;;;;;;21.51;49.07;102161.41;5017548;28;20037;-74
2023/05/23 08:44:58;;;;;;;9.13;3.58;;;;;;;21.46;49.47;102170.59;5007365;28;20402;-69
2023/05/23 08:47:23;;;;;;;12.43;4.63;;;;;;;21.40;49.82;102168.44;5007100;28;20072;-69
2023/05/23 08:49:51;;;;;;;9.65;3.83;;;;;;;21.32;49.61;102164.53;5008038;28;20474;-68
2023/05/23 08:52:20;;;;;;;11.30;3.55;;;;;;;21.25;49.52;102163.28;5005314;28;20038;-68
2023/05/23 08:54:46;;;;;;;10.02;3.50;;;;;;;21.25;49.99;102171.25;5007420;28;20095;-69
2023/05/23 08:57:12;;;;;;;10.25;3.60;;;;;;;21.21;49.81;102172.44;5005335;28;20037;-69
2023/05/23 08:59:37;;;;;;;10.85;3.28;;;;;;;21.23;49.76;102173.16;5022255;28;20037;-68
2023/05/23 09:02:09;;;;;;;7.15;3.50;;;;;;;21.21;50.11;102180.41;5006144;28;20041;-68
2023/05/23 09:04:35;;;;;;;8.50;3.60;;;;;;;21.19;50.00;102177.88;5002796;28;20030;-69
2023/05/23 09:07:01;;;;;;;10.70;3.42;;;;;;;21.23;50.00;102188.25;5002847;28;20037;-67
2023/05/23 09:09:26;;;;;;;7.78;3.42;;;;;;;21.22;49.93;102187.41;5004336;28;20053;-68
2023/05/23 09:11:54;;;;;;;6.68;3.33;;;;;;;21.29;49.98;102198.41;5010196;28;20033;-69
2023/05/23 09:14:20;;;;;;;6.82;3.08;;;;;;;21.32;49.35;102188.41;5008467;28;20530;-69
2023/05/23 09:16:47;;;;;;;13.38;3.47;;;;;;;21.34;49.48;102193.59;5012256;28;20087;-68
2023/05/23 09:19:13;;;;;;;9.20;3.53;;;;;;;21.30;49.71;102194.78;5009230;28;20046;-67
2023/05/23 09:21:43;;;;;;;7.57;3.22;;;;;;;21.25;49.83;102189.81;5014445;28;20041;-66
2023/05/23 09:24:09;;;;;;;11.18;3.55;;;;;;;21.26;49.89;102199.47;5005843;28;20106;-69
2023/05/23 09:26:35;;;;;;;10.20;3.40;;;;;;;21.28;49.62;102205.47;5002119;28;20959;-69
2023/05/23 09:29:03;;;;;;;7.38;3.08;;;;;;;21.26;49.39;102191.50;5010467;28;20041;-67
2023/05/23 09:31:31;;;;;;;7.95;3.05;;;;;;;21.30;49.86;102206.25;5009316;28;20037;-68
2023/05/23 09:33:57;;;;;;;7.95;3.03;;;;;;;21.29;49.49;102201.88;5009768;28;20033;-68
2023/05/23 09:36:22;;;;;;;7.18;2.90;;;;;;;21.31;49.56;102205.25;5004388;28;20106;-72
2023/05/23 09:38:47;;;;;;;8.57;3.10;;;;;;;21.33;49.46;102203.38;5008180;28;20120;-68
2023/05/23 09:41:13;;;;;;;7.75;3.45;;;;;;;21.35;49.18;102201.44;5003120;28;20041;-67
2023/05/23 09:43:39;;;;;;;7.07;2.97;;;;;;;21.36;49.01;102204.94;5012253;28;20520;-68
2023/05/23 09:46:11;;;;;;;7.25;3.15;;;;;;;21.41;48.89;102204.59;5008014;28;20079;-67
2023/05/23 09:48:37;;;;;;;8.70;2.70;;;;;;;21.46;48.59;102210.38;5008937;28;20108;-72
2023/05/23 09:51:12;;;;;;;6.18;2.78;;;;;;;21.44;48.75;102204.38;5005405;28;20033;-68
2023/05/23 09:53:37;;;;;;;9.93;3.00;;;;;;;21.46;48.54;102205.09;5010003;28;20034;-70
2023/05/23 09:56:03;;;;;;;9.30;3.20;;;;;;;21.42;48.68;102204.47;5004293;28;20030;-71
2023/05/23 09:58:29;;;;;;;7.47;3.00;;;;;;;21.42;48.61;102203.63;5014083;28;20037;-68
2023/05/23 10:00:56;;;;;;;7.20;2.65;;;;;;;21.44;49.02;102197.25;5012900;28;20048;-68
2023/05/23 10:03:29;;;;;;;10.82;2.75;;;;;;;21.37;48.83;102196.84;5009633;28;20041;-68
2023/05/23 10:06:03;;;;;;;10.52;3.20;;;;;;;21.45;48.95;102198.13;5013061;28;20486;-70
2023/05/23 10:08:32;;;;;;;;;;;;;;;21.50;48.50;102206.59;5007413;28;20034;-73
2023/05/23 10:11:13;;;;;;;6.55;2.90;;;;;;;21.52;48.37;102210.84;5014259;28;19991;-69
2023/05/23 10:13:48;;;;;;;7.05;2.38;;;;;;;21.51;48.49;102208.31;5017716;28;20089;-70
2023/05/23 10:16:26;;;;;;;10.18;2.90;;;;;;;21.43;48.61;102203.53;4999582;28;20108;-69
2023/05/23 10:18:58;;;;;;;8.35;2.95;;;;;;;21.44;48.36;102196.41;5005170;28;20429;-68
2023/05/23 10:21:32;;;;;;;8.57;2.65;;;;;;;21.41;48.08;102194.81;5001073;28;20091;-66
2023/05/23 10:23:58;;;;;;;;;;;;;;;21.48;48.04;102197.88;5001156;28;20394;-68
2023/05/23 10:26:25;;;;;;;11.52;3.13;;;;;;;21.47;48.03;102206.78;5000726;28;20884;-70
2023/05/23 10:28:51;;;;;;;7.82;2.55;;;;;;;21.46;48.14;102205.09;5019562;28;20389;-71
2023/05/23 10:31:17;;;;;;;6.70;3.03;;;;;;;21.48;47.57;102208.50;5020533;28;20060;-70
2023/05/23 10:33:48;;;;;;;7.53;2.90;;;;;;;21.49;47.69;102207.53;5020425;28;20033;-70
2023/05/23 10:36:21;;;;;;;6.97;2.88;;;;;;;21.55;47.55;102213.25;5020249;28;20055;-71
2023/05/23 10:38:58;;;;;;;9.02;2.58;;;;;;;21.53;47.67;102214.31;5009341;28;20409;-68
2023/05/23 10:41:37;;;;;;;7.20;2.50;;;;;;;21.54;47.56;102208.91;5003080;28;20441;-70
2023/05/23 10:44:15;;;;;;;7.32;2.50;;;;;;;21.55;47.58;102218.56;5004199;28;20832;-70
2023/05/23 10:47:00;;;;;;;7.13;2.78;;;;;;;21.56;47.48;102204.31;5005690;28;20064;-69
2023/05/23 10:49:45;;;;;;;6.63;2.67;;;;;;;21.56;47.38;102206.16;5016769;28;20482;-72
2023/05/23 10:52:12;;;;;;;8.77;2.53;;;;;;;21.60;46.56;102201.44;5020244;28;20407;-69
2023/05/23 10:54:52;;;;;;;6.90;2.28;;;;;;;21.58;46.47;102217.47;5016225;28;20052;-68
2023/05/23 10:57:19;;;;;;;5.88;2.28;;;;;;;21.55;47.04;102197.34;5003034;28;20045;-70
2023/05/23 10:59:45;;;;;;;7.85;2.70;;;;;;;21.54;46.86;102203.59;5010451;28;20531;-70
2023/05/23 11:02:17;;;;;;;5.53;2.30;;;;;;;21.55;46.73;102213.25;5008995;28;20173;-70
2023/05/23 11:04:43;;;;;;;5.50;2.00;;;;;;;21.57;46.83;102205.19;5009976;28;20061;-68
2023/05/23 11:07:31;;;;;;;10.93;2.45;;;;;;;21.58;47.01;102198.91;5000505;28;20070;-68
2023/05/23 11:10:07;;;;;;;12.07;2.60;;;;;;;21.56;46.99;102192.88;5000051;28;20073;-69
2023/05/23 11:13:04;;;;;;;8.43;2.40;;;;;;;21.63;47.18;102206.53;5000764;28;20034;-68
2023/05/23 11:15:41;;;;;;;9.73;2.65;;;;;;;21.58;47.17;102195.41;5003961;28;20096;-69
2023/05/23 11:18:07;;;;;;;9.00;2.50;;;;;;;21.66;47.27;102201.81;5019837;28;20116;-69
2023/05/23 11:20:35;;;;;;;8.60;2.65;;;;;;;21.68;46.52;102196.41;5022419;28;20042;-72
2023/05/23 11:23:03;;;;;;;6.75;2.25;;;;;;;21.67;46.96;102195.56;5011942;28;20052;-71